sensor_id;sensor_type;location;lat;lon;timestamp;P1;durP1;ratioP1;P2;durP2;ratioP2
44606;SDS011;30315;46.072;14.474;2023-09-30T00:01:08;12.57;;;8.68;;
44606;SDS011;30315;46.072;14.474;2023-09-30T00:03:36;9.50;;;8.60;;
44606;SDS011;30315;46.072;14.474;2023-09-30T00:06:04;8.57;;;7.80;;
44606;SDS011;30315;46.072;14.474;2023-09-30T00:08:31;12.00;;;8.23;;
44606;SDS011;30315;46.072;14.474;2023-09-30T00:10:58;8.93;;;8.13;;
44606;SDS011;30315;46.072;14.474;2023-09-30T00:13:26;9.30;;;8.40;;
44606;SDS011;30315;46.072;14.474;2023-09-30T00:15:53;8.82;;;8.13;;
44606;SDS011;30315;46.072;14.474;2023-09-30T00:18:20;10.25;;;8.88;;
44606;SDS011;30315;46.072;14.474;2023-09-30T00:20:47;8.98;;;8.23;;
44606;SDS011;30315;46.072;14.474;2023-09-30T00:23:14;10.13;;;8.57;;
44606;SDS011;30315;46.072;14.474;2023-09-30T00:25:41;10.10;;;8.80;;
44606;SDS011;30315;46.072;14.474;2023-09-30T00:28:08;10.18;;;8.95;;
44606;SDS011;30315;46.072;14.474;2023-09-30T00:30:35;11.80;;;9.43;;
44606;SDS011;30315;46.072;14.474;2023-09-30T00:33:02;9.82;;;8.88;;
44606;SDS011;30315;46.072;14.474;2023-09-30T00:35:31;8.88;;;8.15;;
44606;SDS011;30315;46.072;14.474;2023-09-30T00:38:01;10.85;;;9.48;;
44606;SDS011;30315;46.072;14.474;2023-09-30T00:40:28;8.88;;;8.07;;
44606;SDS011;30315;46.072;14.474;2023-09-30T00:42:57;11.30;;;8.63;;
44606;SDS011;30315;46.072;14.474;2023-09-30T00:45:24;10.60;;;8.50;;
44606;SDS011;30315;46.072;14.474;2023-09-30T00:47:51;9.45;;;8.38;;
44606;SDS011;30315;46.072;14.474;2023-09-30T00:50:19;10.20;;;8.88;;
44606;SDS011;30315;46.072;14.474;2023-09-30T00:52:47;9.13;;;8.32;;
44606;SDS011;30315;46.072;14.474;2023-09-30T00:55:15;10.60;;;8.88;;
44606;SDS011;30315;46.072;14.474;2023-09-30T00:57:44;9.10;;;8.05;;
44606;SDS011;30315;46.072;14.474;2023-09-30T01:00:11;11.18;;;8.70;;
44606;SDS011;30315;46.072;14.474;2023-09-30T01:02:39;9.75;;;8.75;;
44606;SDS011;30315;46.072;14.474;2023-09-30T01:05:11;8.30;;;7.60;;
44606;SDS011;30315;46.072;14.474;2023-09-30T01:07:38;11.10;;;8.07;;
44606;SDS011;30315;46.072;14.474;2023-09-30T01:10:05;9.13;;;8.00;;
44606;SDS011;30315;46.072;14.474;2023-09-30T01:12:32;8.30;;;7.60;;
44606;SDS011;30315;46.072;14.474;2023-09-30T01:15:01;8.47;;;7.77;;
44606;SDS011;30315;46.072;14.474;2023-09-30T01:17:33;8.85;;;7.97;;
44606;SDS011;30315;46.072;14.474;2023-09-30T01:20:01;9.77;;;8.60;;
44606;SDS011;30315;46.072;14.474;2023-09-30T01:22:32;11.85;;;9.30;;
44606;SDS011;30315;46.072;14.474;2023-09-30T01:24:59;10.00;;;8.48;;
44606;SDS011;30315;46.072;14.474;2023-09-30T01:27:26;9.57;;;8.68;;
44606;SDS011;30315;46.072;14.474;2023-09-30T01:29:53;9.82;;;8.93;;
44606;SDS011;30315;46.072;14.474;2023-09-30T01:32:20;10.35;;;8.60;;
44606;SDS011;30315;46.072;14.474;2023-09-30T01:34:47;10.82;;;8.60;;
44606;SDS011;30315;46.072;14.474;2023-09-30T01:37:14;11.27;;;8.82;;
44606;SDS011;30315;46.072;14.474;2023-09-30T01:39:41;9.85;;;8.48;;
44606;SDS011;30315;46.072;14.474;2023-09-30T01:42:11;11.02;;;8.70;;
44606;SDS011;30315;46.072;14.474;2023-09-30T01:44:38;9.80;;;8.75;;
44606;SDS011;30315;46.072;14.474;2023-09-30T01:47:05;10.15;;;9.15;;
44606;SDS011;30315;46.072;14.474;2023-09-30T01:49:32;9.90;;;8.20;;
44606;SDS011;30315;46.072;14.474;2023-09-30T01:51:59;10.48;;;9.13;;
44606;SDS011;30315;46.072;14.474;2023-09-30T01:54:26;10.63;;;9.45;;
44606;SDS011;30315;46.072;14.474;2023-09-30T01:56:54;8.57;;;7.80;;
44606;SDS011;30315;46.072;14.474;2023-09-30T01:59:21;11.50;;;9.75;;
44606;SDS011;30315;46.072;14.474;2023-09-30T02:01:48;9.65;;;8.85;;
44606;SDS011;30315;46.072;14.474;2023-09-30T02:04:16;12.88;;;8.73;;
44606;SDS011;30315;46.072;14.474;2023-09-30T02:06:43;9.27;;;8.38;;
44606;SDS011;30315;46.072;14.474;2023-09-30T02:09:10;9.50;;;8.50;;
44606;SDS011;30315;46.072;14.474;2023-09-30T02:11:39;9.27;;;8.48;;
44606;SDS011;30315;46.072;14.474;2023-09-30T02:14:07;9.00;;;8.13;;
44606;SDS011;30315;46.072;14.474;2023-09-30T02:16:39;9.45;;;7.95;;
44606;SDS011;30315;46.072;14.474;2023-09-30T02:19:06;10.52;;;8.80;;
44606;SDS011;30315;46.072;14.474;2023-09-30T02:21:33;9.25;;;8.55;;
44606;SDS011;30315;46.072;14.474;2023-09-30T02:26:56;9.43;;;8.40;;
44606;SDS011;30315;46.072;14.474;2023-09-30T02:29:25;9.00;;;8.25;;
44606;SDS011;30315;46.072;14.474;2023-09-30T02:31:52;9.65;;;8.65;;
44606;SDS011;30315;46.072;14.474;2023-09-30T02:34:21;10.77;;;8.13;;
44606;SDS011;30315;46.072;14.474;2023-09-30T02:36:48;9.30;;;8.40;;
44606;SDS011;30315;46.072;14.474;2023-09-30T02:39:15;9.82;;;8.85;;
44606;SDS011;30315;46.072;14.474;2023-09-30T02:41:43;10.30;;;8.95;;
44606;SDS011;30315;46.072;14.474;2023-09-30T02:44:10;9.15;;;8.45;;
44606;SDS011;30315;46.072;14.474;2023-09-30T02:46:37;9.85;;;8.70;;
44606;SDS011;30315;46.072;14.474;2023-09-30T02:49:05;12.65;;;9.30;;
44606;SDS011;30315;46.072;14.474;2023-09-30T02:51:32;10.18;;;9.20;;
44606;SDS011;30315;46.072;14.474;2023-09-30T02:53:59;9.73;;;8.73;;
44606;SDS011;30315;46.072;14.474;2023-09-30T02:56:26;9.85;;;8.80;;
44606;SDS011;30315;46.072;14.474;2023-09-30T02:58:56;10.35;;;9.40;;
44606;SDS011;30315;46.072;14.474;2023-09-30T03:01:25;10.17;;;9.33;;
44606;SDS011;30315;46.072;14.474;2023-09-30T03:03:53;10.18;;;8.95;;
44606;SDS011;30315;46.072;14.474;2023-09-30T03:06:20;10.43;;;8.68;;
44606;SDS011;30315;46.072;14.474;2023-09-30T03:08:47;9.40;;;8.52;;
44606;SDS011;30315;46.072;14.474;2023-09-30T03:11:14;9.05;;;8.25;;
44606;SDS011;30315;46.072;14.474;2023-09-30T03:13:41;10.60;;;8.63;;
44606;SDS011;30315;46.072;14.474;2023-09-30T03:16:09;10.90;;;9.68;;
44606;SDS011;30315;46.072;14.474;2023-09-30T03:18:35;10.35;;;9.43;;
44606;SDS011;30315;46.072;14.474;2023-09-30T03:21:02;9.55;;;8.63;;
44606;SDS011;30315;46.072;14.474;2023-09-30T03:23:40;9.75;;;8.80;;
44606;SDS011;30315;46.072;14.474;2023-09-30T03:26:08;10.32;;;9.18;;
44606;SDS011;30315;46.072;14.474;2023-09-30T03:28:36;9.65;;;8.68;;
44606;SDS011;30315;46.072;14.474;2023-09-30T03:31:04;10.70;;;8.95;;
44606;SDS011;30315;46.072;14.474;2023-09-30T03:33:32;10.45;;;9.38;;
44606;SDS011;30315;46.072;14.474;2023-09-30T03:36:00;10.13;;;9.32;;
44606;SDS011;30315;46.072;14.474;2023-09-30T03:38:27;9.43;;;8.55;;
44606;SDS011;30315;46.072;14.474;2023-09-30T03:40:54;9.57;;;8.68;;
44606;SDS011;30315;46.072;14.474;2023-09-30T03:43:21;9.63;;;8.63;;
44606;SDS011;30315;46.072;14.474;2023-09-30T03:45:49;10.52;;;8.77;;
44606;SDS011;30315;46.072;14.474;2023-09-30T03:48:16;9.80;;;8.85;;
44606;SDS011;30315;46.072;14.474;2023-09-30T03:50:45;10.48;;;9.38;;
44606;SDS011;30315;46.072;14.474;2023-09-30T03:53:12;12.90;;;9.70;;
44606;SDS011;30315;46.072;14.474;2023-09-30T03:55:39;11.57;;;10.38;;
44606;SDS011;30315;46.072;14.474;2023-09-30T03:58:07;12.75;;;9.63;;
44606;SDS011;30315;46.072;14.474;2023-09-30T04:00:34;10.60;;;9.40;;
44606;SDS011;30315;46.072;14.474;2023-09-30T04:03:02;12.45;;;10.43;;
44606;SDS011;30315;46.072;14.474;2023-09-30T04:05:30;11.10;;;9.95;;
44606;SDS011;30315;46.072;14.474;2023-09-30T04:08:00;11.07;;;9.98;;
44606;SDS011;30315;46.072;14.474;2023-09-30T04:10:28;11.65;;;10.15;;
44606;SDS011;30315;46.072;14.474;2023-09-30T04:12:58;14.93;;;11.68;;
44606;SDS011;30315;46.072;14.474;2023-09-30T04:15:25;13.88;;;11.52;;
44606;SDS011;30315;46.072;14.474;2023-09-30T04:17:52;13.15;;;11.85;;
44606;SDS011;30315;46.072;14.474;2023-09-30T04:20:19;12.60;;;11.32;;
44606;SDS011;30315;46.072;14.474;2023-09-30T04:22:53;13.77;;;12.45;;
44606;SDS011;30315;46.072;14.474;2023-09-30T04:25:24;14.10;;;12.70;;
44606;SDS011;30315;46.072;14.474;2023-09-30T04:27:51;20.15;;;12.98;;
44606;SDS011;30315;46.072;14.474;2023-09-30T04:30:19;15.93;;;12.95;;
44606;SDS011;30315;46.072;14.474;2023-09-30T04:32:49;16.65;;;13.90;;
44606;SDS011;30315;46.072;14.474;2023-09-30T04:35:16;18.20;;;13.60;;
44606;SDS011;30315;46.072;14.474;2023-09-30T04:37:44;19.90;;;14.75;;
44606;SDS011;30315;46.072;14.474;2023-09-30T04:40:11;18.42;;;14.93;;
44606;SDS011;30315;46.072;14.474;2023-09-30T04:42:46;22.60;;;14.90;;
44606;SDS011;30315;46.072;14.474;2023-09-30T04:45:14;20.63;;;15.77;;
44606;SDS011;30315;46.072;14.474;2023-09-30T04:47:47;21.80;;;15.25;;
44606;SDS011;30315;46.072;14.474;2023-09-30T04:50:18;18.17;;;15.48;;
44606;SDS011;30315;46.072;14.474;2023-09-30T04:52:48;20.83;;;14.95;;
44606;SDS011;30315;46.072;14.474;2023-09-30T04:55:17;25.60;;;17.00;;
44606;SDS011;30315;46.072;14.474;2023-09-30T04:57:45;18.65;;;15.32;;
44606;SDS011;30315;46.072;14.474;2023-09-30T05:00:15;22.33;;;16.05;;
44606;SDS011;30315;46.072;14.474;2023-09-30T05:02:44;22.17;;;16.15;;
44606;SDS011;30315;46.072;14.474;2023-09-30T05:05:12;24.88;;;15.77;;
44606;SDS011;30315;46.072;14.474;2023-09-30T05:07:41;20.27;;;15.70;;
44606;SDS011;30315;46.072;14.474;2023-09-30T05:10:08;25.65;;;16.63;;
44606;SDS011;30315;46.072;14.474;2023-09-30T05:12:39;19.70;;;16.88;;
44606;SDS011;30315;46.072;14.474;2023-09-30T05:15:12;22.92;;;17.30;;
44606;SDS011;30315;46.072;14.474;2023-09-30T05:17:42;23.10;;;18.10;;
44606;SDS011;30315;46.072;14.474;2023-09-30T05:20:13;23.55;;;18.10;;
44606;SDS011;30315;46.072;14.474;2023-09-30T05:22:44;22.90;;;18.33;;
44606;SDS011;30315;46.072;14.474;2023-09-30T05:25:15;27.85;;;19.55;;
44606;SDS011;30315;46.072;14.474;2023-09-30T05:27:44;25.73;;;19.90;;
44606;SDS011;30315;46.072;14.474;2023-09-30T05:30:11;26.20;;;19.02;;
44606;SDS011;30315;46.072;14.474;2023-09-30T05:32:42;24.48;;;18.45;;
44606;SDS011;30315;46.072;14.474;2023-09-30T05:35:09;22.60;;;18.38;;
44606;SDS011;30315;46.072;14.474;2023-09-30T05:37:40;20.80;;;17.30;;
44606;SDS011;30315;46.072;14.474;2023-09-30T05:40:08;22.58;;;17.92;;
44606;SDS011;30315;46.072;14.474;2023-09-30T05:42:46;20.58;;;17.13;;
44606;SDS011;30315;46.072;14.474;2023-09-30T05:45:14;19.67;;;16.95;;
44606;SDS011;30315;46.072;14.474;2023-09-30T05:47:42;22.67;;;17.52;;
44606;SDS011;30315;46.072;14.474;2023-09-30T05:50:11;17.95;;;16.05;;
44606;SDS011;30315;46.072;14.474;2023-09-30T05:52:43;18.10;;;16.15;;
44606;SDS011;30315;46.072;14.474;2023-09-30T05:55:13;19.02;;;15.82;;
44606;SDS011;30315;46.072;14.474;2023-09-30T05:57:42;18.58;;;16.23;;
44606;SDS011;30315;46.072;14.474;2023-09-30T06:00:11;20.10;;;16.75;;
44606;SDS011;30315;46.072;14.474;2023-09-30T06:02:47;17.17;;;15.32;;
44606;SDS011;30315;46.072;14.474;2023-09-30T06:05:18;19.75;;;16.73;;
44606;SDS011;30315;46.072;14.474;2023-09-30T06:07:46;20.15;;;16.70;;
44606;SDS011;30315;46.072;14.474;2023-09-30T06:10:13;18.88;;;16.35;;
44606;SDS011;30315;46.072;14.474;2023-09-30T06:12:50;19.83;;;16.48;;
44606;SDS011;30315;46.072;14.474;2023-09-30T06:15:23;18.65;;;15.68;;
44606;SDS011;30315;46.072;14.474;2023-09-30T06:17:55;18.80;;;16.70;;
44606;SDS011;30315;46.072;14.474;2023-09-30T06:20:23;17.27;;;15.38;;
44606;SDS011;30315;46.072;14.474;2023-09-30T06:22:54;20.75;;;17.27;;
44606;SDS011;30315;46.072;14.474;2023-09-30T06:25:21;20.80;;;16.15;;
44606;SDS011;30315;46.072;14.474;2023-09-30T06:27:51;17.15;;;15.35;;
44606;SDS011;30315;46.072;14.474;2023-09-30T06:30:18;17.63;;;15.82;;
44606;SDS011;30315;46.072;14.474;2023-09-30T06:32:50;18.15;;;15.55;;
44606;SDS011;30315;46.072;14.474;2023-09-30T06:35:17;15.57;;;13.98;;
44606;SDS011;30315;46.072;14.474;2023-09-30T06:37:48;17.23;;;15.43;;
44606;SDS011;30315;46.072;14.474;2023-09-30T06:40:15;16.00;;;14.30;;
44606;SDS011;30315;46.072;14.474;2023-09-30T06:42:41;16.02;;;14.38;;
44606;SDS011;30315;46.072;14.474;2023-09-30T06:45:09;16.25;;;14.63;;
44606;SDS011;30315;46.072;14.474;2023-09-30T06:47:37;16.83;;;15.05;;
44606;SDS011;30315;46.072;14.474;2023-09-30T06:50:09;15.95;;;14.30;;
44606;SDS011;30315;46.072;14.474;2023-09-30T06:52:40;15.23;;;13.70;;
44606;SDS011;30315;46.072;14.474;2023-09-30T06:55:08;15.98;;;14.35;;
44606;SDS011;30315;46.072;14.474;2023-09-30T06:57:36;17.02;;;14.15;;
44606;SDS011;30315;46.072;14.474;2023-09-30T07:02:36;16.13;;;14.43;;
44606;SDS011;30315;46.072;14.474;2023-09-30T07:05:07;17.00;;;14.45;;
44606;SDS011;30315;46.072;14.474;2023-09-30T07:07:35;15.45;;;13.98;;
44606;SDS011;30315;46.072;14.474;2023-09-30T07:10:04;15.75;;;13.95;;
44606;SDS011;30315;46.072;14.474;2023-09-30T07:12:32;16.88;;;14.98;;
44606;SDS011;30315;46.072;14.474;2023-09-30T07:15:03;16.40;;;14.55;;
44606;SDS011;30315;46.072;14.474;2023-09-30T07:17:34;16.38;;;14.18;;
44606;SDS011;30315;46.072;14.474;2023-09-30T07:20:02;15.82;;;14.25;;
44606;SDS011;30315;46.072;14.474;2023-09-30T07:22:35;19.98;;;14.63;;
44606;SDS011;30315;46.072;14.474;2023-09-30T07:25:22;15.75;;;14.15;;
44606;SDS011;30315;46.072;14.474;2023-09-30T07:27:49;14.27;;;12.85;;
44606;SDS011;30315;46.072;14.474;2023-09-30T07:30:37;15.57;;;13.90;;
44606;SDS011;30315;46.072;14.474;2023-09-30T07:33:20;15.85;;;14.02;;
44606;SDS011;30315;46.072;14.474;2023-09-30T07:36:28;14.23;;;12.82;;
44606;SDS011;30315;46.072;14.474;2023-09-30T07:38:55;14.13;;;12.70;;
44606;SDS011;30315;46.072;14.474;2023-09-30T07:41:23;15.68;;;14.15;;
44606;SDS011;30315;46.072;14.474;2023-09-30T07:43:50;14.57;;;13.07;;
44606;SDS011;30315;46.072;14.474;2023-09-30T07:48:46;19.83;;;15.02;;
44606;SDS011;30315;46.072;14.474;2023-09-30T07:51:14;19.02;;;14.88;;
44606;SDS011;30315;46.072;14.474;2023-09-30T07:53:41;16.02;;;14.27;;
44606;SDS011;30315;46.072;14.474;2023-09-30T07:56:09;18.38;;;14.98;;
44606;SDS011;30315;46.072;14.474;2023-09-30T07:58:36;18.42;;;13.98;;
44606;SDS011;30315;46.072;14.474;2023-09-30T08:01:03;19.70;;;14.20;;
44606;SDS011;30315;46.072;14.474;2023-09-30T08:03:30;14.30;;;12.82;;
44606;SDS011;30315;46.072;14.474;2023-09-30T08:05:57;17.40;;;13.32;;
44606;SDS011;30315;46.072;14.474;2023-09-30T08:08:25;14.18;;;12.75;;
44606;SDS011;30315;46.072;14.474;2023-09-30T08:10:52;16.25;;;12.88;;
44606;SDS011;30315;46.072;14.474;2023-09-30T08:13:25;14.48;;;12.90;;
44606;SDS011;30315;46.072;14.474;2023-09-30T08:15:52;14.32;;;12.18;;
44606;SDS011;30315;46.072;14.474;2023-09-30T08:18:19;13.98;;;12.57;;
44606;SDS011;30315;46.072;14.474;2023-09-30T08:20:46;15.82;;;12.68;;
44606;SDS011;30315;46.072;14.474;2023-09-30T08:23:13;16.90;;;12.77;;
44606;SDS011;30315;46.072;14.474;2023-09-30T08:25:41;17.08;;;12.80;;
44606;SDS011;30315;46.072;14.474;2023-09-30T08:28:07;14.82;;;12.30;;
44606;SDS011;30315;46.072;14.474;2023-09-30T08:30:36;14.27;;;12.57;;
44606;SDS011;30315;46.072;14.474;2023-09-30T08:33:04;15.52;;;12.82;;
44606;SDS011;30315;46.072;14.474;2023-09-30T08:35:36;14.55;;;12.15;;
44606;SDS011;30315;46.072;14.474;2023-09-30T08:38:04;15.05;;;12.20;;
44606;SDS011;30315;46.072;14.474;2023-09-30T08:40:31;14.93;;;12.23;;
44606;SDS011;30315;46.072;14.474;2023-09-30T08:42:58;14.43;;;12.32;;
44606;SDS011;30315;46.072;14.474;2023-09-30T08:45:27;14.15;;;12.73;;
44606;SDS011;30315;46.072;14.474;2023-09-30T08:47:56;16.42;;;13.10;;
44606;SDS011;30315;46.072;14.474;2023-09-30T08:50:27;16.10;;;12.85;;
44606;SDS011;30315;46.072;14.474;2023-09-30T08:53:13;13.30;;;11.98;;
44606;SDS011;30315;46.072;14.474;2023-09-30T08:56:36;15.95;;;12.82;;
44606;SDS011;30315;46.072;14.474;2023-09-30T08:59:34;15.40;;;12.30;;
44606;SDS011;30315;46.072;14.474;2023-09-30T09:02:09;15.63;;;11.60;;
44606;SDS011;30315;46.072;14.474;2023-09-30T09:08:05;16.33;;;12.77;;
44606;SDS011;30315;46.072;14.474;2023-09-30T09:10:37;13.40;;;12.10;;
44606;SDS011;30315;46.072;14.474;2023-09-30T09:13:20;12.15;;;10.93;;
44606;SDS011;30315;46.072;14.474;2023-09-30T09:15:47;12.68;;;11.38;;
44606;SDS011;30315;46.072;14.474;2023-09-30T09:18:30;13.57;;;11.38;;
44606;SDS011;30315;46.072;14.474;2023-09-30T09:21:12;14.30;;;11.48;;
44606;SDS011;30315;46.072;14.474;2023-09-30T09:23:47;12.38;;;11.18;;
44606;SDS011;30315;46.072;14.474;2023-09-30T09:26:26;13.52;;;11.07;;
44606;SDS011;30315;46.072;14.474;2023-09-30T09:28:58;13.38;;;11.30;;
44606;SDS011;30315;46.072;14.474;2023-09-30T09:31:27;13.40;;;11.57;;
44606;SDS011;30315;46.072;14.474;2023-09-30T09:33:55;12.75;;;11.43;;
44606;SDS011;30315;46.072;14.474;2023-09-30T09:36:37;14.60;;;11.73;;
44606;SDS011;30315;46.072;14.474;2023-09-30T09:39:08;11.77;;;10.52;;
44606;SDS011;30315;46.072;14.474;2023-09-30T09:41:52;11.52;;;10.10;;
44606;SDS011;30315;46.072;14.474;2023-09-30T09:44:20;13.15;;;10.90;;
44606;SDS011;30315;46.072;14.474;2023-09-30T09:46:48;15.15;;;11.65;;
44606;SDS011;30315;46.072;14.474;2023-09-30T09:49:19;11.98;;;10.73;;
44606;SDS011;30315;46.072;14.474;2023-09-30T09:51:48;16.58;;;11.02;;
44606;SDS011;30315;46.072;14.474;2023-09-30T09:54:16;12.73;;;11.45;;
44606;SDS011;30315;46.072;14.474;2023-09-30T09:56:44;14.75;;;11.73;;
44606;SDS011;30315;46.072;14.474;2023-09-30T09:59:12;12.35;;;11.05;;
44606;SDS011;30315;46.072;14.474;2023-09-30T10:01:40;14.25;;;10.98;;
44606;SDS011;30315;46.072;14.474;2023-09-30T10:04:12;12.07;;;10.87;;
44606;SDS011;30315;46.072;14.474;2023-09-30T10:06:42;11.63;;;10.45;;
44606;SDS011;30315;46.072;14.474;2023-09-30T10:09:15;14.00;;;10.98;;
44606;SDS011;30315;46.072;14.474;2023-09-30T10:11:44;11.85;;;9.70;;
44606;SDS011;30315;46.072;14.474;2023-09-30T10:14:31;34.30;;;22.70;;
44606;SDS011;30315;46.072;14.474;2023-09-30T10:17:21;21.98;;;16.77;;
44606;SDS011;30315;46.072;14.474;2023-09-30T10:20:47;17.80;;;14.13;;
44606;SDS011;30315;46.072;14.474;2023-09-30T10:25:46;12.65;;;11.43;;
44606;SDS011;30315;46.072;14.474;2023-09-30T10:31:07;11.30;;;10.10;;
44606;SDS011;30315;46.072;14.474;2023-09-30T10:34:23;12.02;;;10.82;;
44606;SDS011;30315;46.072;14.474;2023-09-30T10:36:29;11.65;;;9.68;;
44606;SDS011;30315;46.072;14.474;2023-09-30T10:39:00;11.70;;;10.15;;
44606;SDS011;30315;46.072;14.474;2023-09-30T10:46:56;23.73;;;16.75;;
44606;SDS011;30315;46.072;14.474;2023-09-30T10:51:54;18.20;;;12.57;;
44606;SDS011;30315;46.072;14.474;2023-09-30T10:54:30;16.15;;;13.38;;
44606;SDS011;30315;46.072;14.474;2023-09-30T10:56:59;11.73;;;9.52;;
44606;SDS011;30315;46.072;14.474;2023-09-30T10:59:29;13.75;;;9.65;;
44606;SDS011;30315;46.072;14.474;2023-09-30T11:01:57;11.35;;;8.80;;
44606;SDS011;30315;46.072;14.474;2023-09-30T11:04:25;9.77;;;8.88;;
44606;SDS011;30315;46.072;14.474;2023-09-30T11:06:54;12.65;;;9.70;;
44606;SDS011;30315;46.072;14.474;2023-09-30T11:09:21;10.70;;;9.70;;
44606;SDS011;30315;46.072;14.474;2023-09-30T11:11:52;10.23;;;9.25;;
44606;SDS011;30315;46.072;14.474;2023-09-30T11:14:27;10.35;;;8.93;;
44606;SDS011;30315;46.072;14.474;2023-09-30T11:16:57;12.00;;;9.65;;
44606;SDS011;30315;46.072;14.474;2023-09-30T11:19:36;10.20;;;9.30;;
44606;SDS011;30315;46.072;14.474;2023-09-30T11:22:13;10.45;;;9.45;;
44606;SDS011;30315;46.072;14.474;2023-09-30T11:24:41;10.20;;;8.85;;
44606;SDS011;30315;46.072;14.474;2023-09-30T11:27:08;14.48;;;11.90;;
44606;SDS011;30315;46.072;14.474;2023-09-30T11:29:36;15.07;;;13.18;;
44606;SDS011;30315;46.072;14.474;2023-09-30T11:32:24;13.82;;;11.55;;
44606;SDS011;30315;46.072;14.474;2023-09-30T11:34:59;14.88;;;11.98;;
44606;SDS011;30315;46.072;14.474;2023-09-30T11:37:30;11.75;;;10.55;;
44606;SDS011;30315;46.072;14.474;2023-09-30T11:40:10;11.10;;;10.10;;
44606;SDS011;30315;46.072;14.474;2023-09-30T11:42:40;10.70;;;9.65;;
44606;SDS011;30315;46.072;14.474;2023-09-30T11:45:20;12.20;;;10.90;;
44606;SDS011;30315;46.072;14.474;2023-09-30T11:47:56;12.27;;;11.07;;
44606;SDS011;30315;46.072;14.474;2023-09-30T11:50:24;12.88;;;10.35;;
44606;SDS011;30315;46.072;14.474;2023-09-30T11:52:52;12.02;;;10.70;;
44606;SDS011;30315;46.072;14.474;2023-09-30T11:55:19;12.02;;;10.57;;
44606;SDS011;30315;46.072;14.474;2023-09-30T11:57:48;12.10;;;10.52;;
44606;SDS011;30315;46.072;14.474;2023-09-30T12:00:17;18.17;;;14.07;;
44606;SDS011;30315;46.072;14.474;2023-09-30T12:02:44;17.90;;;12.13;;
44606;SDS011;30315;46.072;14.474;2023-09-30T12:05:12;14.90;;;11.95;;
44606;SDS011;30315;46.072;14.474;2023-09-30T12:07:39;12.68;;;10.25;;
44606;SDS011;30315;46.072;14.474;2023-09-30T12:10:09;10.75;;;9.73;;
44606;SDS011;30315;46.072;14.474;2023-09-30T12:12:37;13.75;;;11.27;;
44606;SDS011;30315;46.072;14.474;2023-09-30T12:15:06;10.35;;;9.38;;
44606;SDS011;30315;46.072;14.474;2023-09-30T12:17:35;14.88;;;9.57;;
44606;SDS011;30315;46.072;14.474;2023-09-30T12:22:33;12.35;;;9.07;;
44606;SDS011;30315;46.072;14.474;2023-09-30T12:25:00;10.32;;;8.48;;
44606;SDS011;30315;46.072;14.474;2023-09-30T12:27:27;10.70;;;8.23;;
44606;SDS011;30315;46.072;14.474;2023-09-30T12:29:54;8.90;;;8.20;;
44606;SDS011;30315;46.072;14.474;2023-09-30T12:32:22;11.02;;;7.75;;
44606;SDS011;30315;46.072;14.474;2023-09-30T12:34:50;13.85;;;8.20;;
44606;SDS011;30315;46.072;14.474;2023-09-30T12:37:18;9.40;;;8.40;;
44606;SDS011;30315;46.072;14.474;2023-09-30T12:39:45;8.80;;;7.95;;
44606;SDS011;30315;46.072;14.474;2023-09-30T12:42:14;9.02;;;8.02;;
44606;SDS011;30315;46.072;14.474;2023-09-30T12:44:42;10.35;;;8.52;;
44606;SDS011;30315;46.072;14.474;2023-09-30T12:47:09;8.45;;;7.65;;
44606;SDS011;30315;46.072;14.474;2023-09-30T12:49:36;9.52;;;8.57;;
44606;SDS011;30315;46.072;14.474;2023-09-30T12:52:04;10.30;;;7.97;;
44606;SDS011;30315;46.072;14.474;2023-09-30T12:54:33;8.80;;;8.00;;
44606;SDS011;30315;46.072;14.474;2023-09-30T12:57:01;9.85;;;7.63;;
44606;SDS011;30315;46.072;14.474;2023-09-30T12:59:30;9.10;;;8.20;;
44606;SDS011;30315;46.072;14.474;2023-09-30T13:01:57;9.63;;;8.63;;
44606;SDS011;30315;46.072;14.474;2023-09-30T13:04:27;11.95;;;8.60;;
44606;SDS011;30315;46.072;14.474;2023-09-30T13:06:58;8.85;;;7.57;;
44606;SDS011;30315;46.072;14.474;2023-09-30T13:09:25;9.32;;;8.32;;
44606;SDS011;30315;46.072;14.474;2023-09-30T13:11:53;10.50;;;8.45;;
44606;SDS011;30315;46.072;14.474;2023-09-30T13:14:21;10.00;;;7.18;;
44606;SDS011;30315;46.072;14.474;2023-09-30T13:16:49;9.48;;;7.97;;
44606;SDS011;30315;46.072;14.474;2023-09-30T13:19:20;12.40;;;7.90;;
44606;SDS011;30315;46.072;14.474;2023-09-30T13:21:49;8.47;;;7.77;;
44606;SDS011;30315;46.072;14.474;2023-09-30T13:24:20;8.05;;;7.20;;
44606;SDS011;30315;46.072;14.474;2023-09-30T13:26:51;8.02;;;7.25;;
44606;SDS011;30315;46.072;14.474;2023-09-30T13:29:19;11.47;;;7.97;;
44606;SDS011;30315;46.072;14.474;2023-09-30T13:31:47;9.15;;;7.55;;
44606;SDS011;30315;46.072;14.474;2023-09-30T13:34:15;9.45;;;6.65;;
44606;SDS011;30315;46.072;14.474;2023-09-30T13:36:45;7.88;;;7.13;;
44606;SDS011;30315;46.072;14.474;2023-09-30T13:39:13;7.78;;;6.97;;
44606;SDS011;30315;46.072;14.474;2023-09-30T13:41:41;9.00;;;6.68;;
44606;SDS011;30315;46.072;14.474;2023-09-30T13:44:10;6.78;;;6.18;;
44606;SDS011;30315;46.072;14.474;2023-09-30T13:46:38;9.38;;;6.43;;
44606;SDS011;30315;46.072;14.474;2023-09-30T13:49:06;7.13;;;6.43;;
44606;SDS011;30315;46.072;14.474;2023-09-30T13:51:35;9.20;;;6.57;;
44606;SDS011;30315;46.072;14.474;2023-09-30T13:54:18;8.70;;;6.43;;
44606;SDS011;30315;46.072;14.474;2023-09-30T13:56:46;7.28;;;6.38;;
44606;SDS011;30315;46.072;14.474;2023-09-30T13:59:21;6.70;;;6.10;;
44606;SDS011;30315;46.072;14.474;2023-09-30T14:02:05;7.55;;;6.90;;
44606;SDS011;30315;46.072;14.474;2023-09-30T14:04:34;7.10;;;6.43;;
44606;SDS011;30315;46.072;14.474;2023-09-30T14:07:04;6.65;;;6.13;;
44606;SDS011;30315;46.072;14.474;2023-09-30T14:09:32;7.68;;;6.43;;
44606;SDS011;30315;46.072;14.474;2023-09-30T14:12:02;9.00;;;6.82;;
44606;SDS011;30315;46.072;14.474;2023-09-30T14:14:34;7.10;;;6.10;;
44606;SDS011;30315;46.072;14.474;2023-09-30T14:17:02;7.78;;;6.20;;
44606;SDS011;30315;46.072;14.474;2023-09-30T14:19:37;7.90;;;5.72;;
44606;SDS011;30315;46.072;14.474;2023-09-30T14:22:05;7.45;;;6.55;;
44606;SDS011;30315;46.072;14.474;2023-09-30T14:24:35;7.55;;;6.85;;
44606;SDS011;30315;46.072;14.474;2023-09-30T14:27:05;6.82;;;6.03;;
44606;SDS011;30315;46.072;14.474;2023-09-30T14:29:34;6.47;;;5.90;;
44606;SDS011;30315;46.072;14.474;2023-09-30T14:32:02;6.57;;;5.90;;
44606;SDS011;30315;46.072;14.474;2023-09-30T14:34:29;6.90;;;5.85;;
44606;SDS011;30315;46.072;14.474;2023-09-30T14:36:56;6.38;;;5.65;;
44606;SDS011;30315;46.072;14.474;2023-09-30T14:39:24;6.30;;;5.75;;
44606;SDS011;30315;46.072;14.474;2023-09-30T14:41:51;8.38;;;6.45;;
44606;SDS011;30315;46.072;14.474;2023-09-30T14:44:18;6.50;;;5.93;;
44606;SDS011;30315;46.072;14.474;2023-09-30T14:46:48;6.88;;;6.35;;
44606;SDS011;30315;46.072;14.474;2023-09-30T14:49:15;6.80;;;6.20;;
44606;SDS011;30315;46.072;14.474;2023-09-30T14:51:42;7.00;;;6.30;;
44606;SDS011;30315;46.072;14.474;2023-09-30T14:54:11;6.55;;;5.95;;
44606;SDS011;30315;46.072;14.474;2023-09-30T14:56:38;5.95;;;5.47;;
44606;SDS011;30315;46.072;14.474;2023-09-30T14:59:05;6.22;;;5.70;;
44606;SDS011;30315;46.072;14.474;2023-09-30T15:01:32;6.68;;;6.10;;